Time;durP1;ratioP1;P1;durP2;ratioP2;P2;SDS_P1;SDS_P2;PMS_P1;PMS_P2;Temp;Humidity;BMP_temperature;BMP_pressure;BME280_temperature;BME280_humidity;BME280_pressure;Samples;Min_cycle;Max_cycle;Signal;HPM_P1;HPM_P2
2021/06/01 02:46:33;;;;;;;4.88;4.25;;;9.50;99.90;;;;;;5794464;22;88828;-81
2021/06/01 02:49:00;;;;;;;6.15;4.93;;;9.50;99.90;;;;;;4983382;28;86505;-82
2021/06/01 02:51:26;;;;;;;8.02;4.85;;;9.40;99.90;;;;;;4978480;28;90106;-85
2021/06/01 02:53:54;;;;;;;5.70;4.15;;;9.40;99.90;;;;;;4983932;28;87687;-84
2021/06/01 02:56:21;;;;;;;6.38;4.68;;;9.40;99.90;;;;;;4976826;28;87168;-82
2021/06/01 02:58:49;;;;;;;5.30;4.78;;;9.30;99.90;;;;;;4972843;28;86993;-84
2021/06/01 03:01:16;;;;;;;5.22;4.20;;;9.30;99.90;;;;;;4975366;28;86847;-81
2021/06/01 03:03:50;;;;;;;5.85;4.43;;;9.20;99.90;;;;;;4978290;28;86257;-82
2021/06/01 03:06:18;;;;;;;5.47;4.85;;;9.20;99.90;;;;;;4977729;28;87031;-82
2021/06/01 03:08:44;;;;;;;5.47;4.65;;;9.20;99.90;;;;;;4974094;28;87208;-84
2021/06/01 03:11:11;;;;;;;5.53;4.97;;;9.20;99.90;;;;;;4955840;28;89633;-85
2021/06/01 03:13:37;;;;;;;5.20;4.70;;;9.20;99.90;;;;;;4970475;28;86932;-84
2021/06/01 03:16:03;;;;;;;5.97;4.72;;;9.20;99.90;;;;;;4971796;28;87037;-80
2021/06/01 03:18:29;;;;;;;12.48;5.60;;;9.10;99.90;;;;;;4967586;28;90031;-83
2021/06/01 03:20:56;;;;;;;5.20;4.70;;;9.00;99.90;;;;;;4972005;28;87963;-84
2021/06/01 03:23:22;;;;;;;5.65;4.90;;;9.00;99.90;;;;;;4955121;28;86920;-81
2021/06/01 03:25:48;;;;;;;7.55;5.30;;;9.00;99.90;;;;;;4963708;28;86882;-82
2021/06/01 03:28:14;;;;;;;6.95;5.18;;;9.00;99.90;;;;;;4976090;28;86537;-81
2021/06/01 03:30:41;;;;;;;6.70;5.18;;;9.00;99.90;;;;;;4971340;28;87066;-82
2021/06/01 03:33:07;;;;;;;7.38;4.93;;;8.90;99.90;;;;;;4969358;28;86586;-85
2021/06/01 03:35:33;;;;;;;5.95;5.32;;;8.90;99.90;;;;;;4972975;28;86399;-82
2021/06/01 03:37:59;;;;;;;9.05;5.55;;;8.90;99.90;;;;;;4977893;28;87599;-81
2021/06/01 03:40:25;;;;;;;7.93;5.32;;;8.90;99.90;;;;;;4978683;28;86857;-86
2021/06/01 03:42:51;;;;;;;6.07;5.22;;;8.90;99.90;;;;;;4979105;28;87168;-86
2021/06/01 03:45:19;;;;;;;5.32;4.60;;;8.90;99.90;;;;;;4960312;28;86854;-86
2021/06/01 03:47:45;;;;;;;5.15;4.63;;;8.90;99.90;;;;;;4975256;28;87136;-87
2021/06/01 03:50:11;;;;;;;7.07;5.57;;;8.90;99.90;;;;;;4956827;28;87157;-85
2021/06/01 03:52:37;;;;;;;5.82;5.13;;;8.90;99.90;;;;;;4981783;28;86432;-83
2021/06/01 03:55:04;;;;;;;6.22;5.45;;;9.00;99.90;;;;;;4982844;28;86518;-83
2021/06/01 03:57:29;;;;;;;5.97;5.00;;;9.00;99.90;;;;;;4972462;28;89258;-85
2021/06/01 03:59:55;;;;;;;7.03;5.35;;;9.00;99.90;;;;;;4981319;28;86140;-83
2021/06/01 04:02:22;;;;;;;6.60;5.40;;;9.10;99.90;;;;;;4978189;28;86727;-84
2021/06/01 04:04:49;;;;;;;5.90;5.05;;;9.10;99.90;;;;;;4981859;28;86825;-82
2021/06/01 04:07:16;;;;;;;6.72;5.13;;;9.20;99.90;;;;;;4973621;28;88342;-84
2021/06/01 04:09:42;;;;;;;6.07;5.32;;;9.20;99.90;;;;;;4972115;28;89195;-85
2021/06/01 04:12:09;;;;;;;5.32;4.82;;;9.30;99.90;;;;;;4971253;28;87017;-86
2021/06/01 04:14:35;;;;;;;5.30;4.57;;;9.40;99.90;;;;;;4970677;28;86989;-83
2021/06/01 04:17:00;;;;;;;6.32;5.22;;;9.40;99.90;;;;;;4971112;28;87215;-84
2021/06/01 04:19:26;;;;;;;7.60;5.35;;;9.50;99.90;;;;;;4970796;28;87015;-85
2021/06/01 04:21:52;;;;;;;4.93;4.43;;;9.60;99.90;;;;;;4970738;28;86894;-85
2021/06/01 04:24:20;;;;;;;5.18;4.68;;;9.70;99.90;;;;;;4973791;28;86158;-83
2021/06/01 04:26:46;;;;;;;6.38;4.93;;;9.80;99.90;;;;;;4974454;28;86576;-86
2021/06/01 04:29:12;;;;;;;7.30;5.00;;;9.90;99.90;;;;;;4974437;28;86912;-88
2021/06/01 04:31:40;;;;;;;6.53;5.18;;;9.90;99.90;;;;;;4968930;28;87932;-86
2021/06/01 04:34:06;;;;;;;7.57;4.78;;;10.00;99.90;;;;;;4958196;28;86264;-86
2021/06/01 04:36:32;;;;;;;6.25;4.60;;;10.00;99.90;;;;;;4973314;28;88114;-86
2021/06/01 04:38:57;;;;;;;6.07;4.32;;;10.20;99.90;;;;;;4973429;28;86927;-85
2021/06/01 04:41:23;;;;;;;6.68;4.18;;;10.20;99.90;;;;;;4973344;28;86899;-85
2021/06/01 04:43:49;;;;;;;6.50;4.93;;;10.30;99.90;;;;;;4971205;28;87053;-85
2021/06/01 04:46:15;;;;;;;5.80;4.85;;;10.50;99.90;;;;;;4970872;28;86637;-85
2021/06/01 04:48:40;;;;;;;6.07;4.40;;;10.50;99.90;;;;;;4970067;28;88223;-85
2021/06/01 04:51:16;;;;;;;8.30;5.05;;;10.60;99.90;;;;;;4968297;28;86612;-86
2021/06/01 04:53:44;;;;;;;7.60;5.10;;;10.70;99.90;;;;;;4967748;28;86247;-86
2021/06/01 04:56:10;;;;;;;7.22;4.70;;;10.80;99.90;;;;;;4970673;28;88714;-85
2021/06/01 04:58:36;;;;;;;5.80;4.97;;;10.90;99.90;;;;;;4973388;28;87992;-87
2021/06/01 05:01:01;;;;;;;6.32;4.82;;;11.00;99.90;;;;;;4965931;28;87065;-86
2021/06/01 05:03:27;;;;;;;7.03;5.05;;;11.10;99.90;;;;;;4965672;28;87093;-87
2021/06/01 05:05:53;;;;;;;9.40;5.20;;;11.20;99.90;;;;;;4972710;28;86889;-84
2021/06/01 05:08:18;;;;;;;6.65;4.90;;;11.30;99.90;;;;;;4947429;28;89200;-84
2021/06/01 05:10:44;;;;;;;8.95;5.63;;;11.40;99.90;;;;;;4975551;28;86969;-85
2021/06/01 05:13:10;;;;;;;8.25;4.93;;;11.40;99.90;;;;;;4976529;28;86078;-85
2021/06/01 05:15:35;;;;;;;5.95;5.00;;;11.60;99.90;;;;;;4975813;28;87131;-86
2021/06/01 05:18:01;;;;;;;5.72;5.20;;;11.60;99.90;;;;;;4971588;28;87168;-85
2021/06/01 05:20:27;;;;;;;6.45;4.55;;;11.70;99.70;;;;;;4971262;28;87948;-86
2021/06/01 05:22:52;;;;;;;5.18;4.68;;;11.80;98.60;;;;;;4968390;28;87137;-86
2021/06/01 05:25:18;;;;;;;5.75;4.30;;;11.90;98.30;;;;;;4961937;28;87278;-85
2021/06/01 05:27:44;;;;;;;5.53;4.47;;;11.90;97.80;;;;;;4970903;28;87517;-85
2021/06/01 05:30:10;;;;;;;5.80;4.75;;;12.00;97.60;;;;;;4971970;28;87044;-84
2021/06/01 05:35:27;;;;;;;7.05;5.10;;;12.20;97.80;;;;;;4961484;28;88067;-86
2021/06/01 05:37:52;;;;;;;6.78;5.13;;;12.30;96.90;;;;;;4969613;28;86703;-84
2021/06/01 05:40:19;;;;;;;5.80;5.20;;;12.40;96.80;;;;;;4971564;28;87238;-83
2021/06/01 05:42:44;;;;;;;6.40;5.80;;;12.50;97.20;;;;;;4972185;28;86962;-84
2021/06/01 05:45:11;;;;;;;7.20;5.43;;;12.60;96.50;;;;;;4970322;28;88043;-85
2021/06/01 05:47:37;;;;;;;6.68;5.70;;;12.70;96.00;;;;;;4950086;28;90324;-85
2021/06/01 05:50:04;;;;;;;6.22;5.63;;;12.80;95.40;;;;;;4962202;28;87019;-83
2021/06/01 05:52:30;;;;;;;5.88;5.28;;;12.90;95.90;;;;;;4970650;28;86638;-83
2021/06/01 05:54:56;;;;;;;5.55;5.05;;;13.00;95.00;;;;;;4969221;28;87255;-82
2021/06/01 05:57:21;;;;;;;7.15;5.07;;;13.10;94.40;;;;;;4956487;28;86984;-84
2021/06/01 05:59:47;;;;;;;5.07;4.57;;;13.10;93.20;;;;;;4958631;28;86446;-84
2021/06/01 06:02:13;;;;;;;6.90;5.97;;;13.10;92.90;;;;;;4966758;28;86657;-86
2021/06/01 06:04:38;;;;;;;5.30;4.80;;;13.20;93.00;;;;;;4969154;28;88024;-84
2021/06/01 06:07:04;;;;;;;9.90;5.15;;;13.30;92.70;;;;;;4969610;28;88205;-85
2021/06/01 06:09:30;;;;;;;7.18;5.18;;;13.40;92.70;;;;;;4968927;28;87902;-84
2021/06/01 06:11:57;;;;;;;7.70;5.82;;;13.50;93.10;;;;;;4971852;28;87404;-85
2021/06/01 06:14:23;;;;;;;7.68;5.30;;;13.60;92.70;;;;;;4969230;28;87675;-83
2021/06/01 06:16:56;;;;;;;7.00;5.20;;;13.70;92.00;;;;;;4970096;28;86866;-84
2021/06/01 06:19:21;;;;;;;6.25;5.68;;;13.80;91.60;;;;;;4960259;28;86856;-82
2021/06/01 06:21:47;;;;;;;8.38;5.40;;;13.80;90.90;;;;;;4969338;28;88114;-84
2021/06/01 06:24:13;;;;;;;7.32;5.30;;;13.90;91.90;;;;;;4968474;28;87714;-83
2021/06/01 06:26:38;;;;;;;5.28;4.75;;;13.90;91.30;;;;;;4968877;28;86394;-84
2021/06/01 06:29:04;;;;;;;5.38;4.88;;;14.00;91.10;;;;;;4968310;28;86771;-84
2021/06/01 06:31:30;;;;;;;6.57;5.43;;;14.10;90.70;;;;;;4969686;28;87300;-84
2021/06/01 06:33:56;;;;;;;7.57;5.75;;;14.20;90.40;;;;;;4967711;28;89213;-84
2021/06/01 06:36:22;;;;;;;6.40;5.65;;;14.30;90.50;;;;;;4968502;28;88734;-83
2021/06/01 06:38:48;;;;;;;6.32;5.35;;;14.40;90.80;;;;;;4968853;28;86624;-84
2021/06/01 06:41:15;;;;;;;7.38;5.57;;;14.50;90.50;;;;;;4968854;28;86964;-83
2021/06/01 06:43:50;;;;;;;8.80;5.70;;;14.60;89.90;;;;;;4964296;28;86983;-84
2021/06/01 06:46:31;;;;;;;6.43;5.90;;;14.80;89.80;;;;;;4965343;28;86994;-85
2021/06/01 06:48:59;;;;;;;6.13;5.53;;;14.80;90.20;;;;;;4958756;28;86960;-84
2021/06/01 06:51:26;;;;;;;7.80;6.25;;;14.90;89.20;;;;;;4968787;28;86413;-85
2021/06/01 06:53:56;;;;;;;6.30;5.00;;;14.90;88.90;;;;;;4967296;28;86655;-86
2021/06/01 06:56:27;;;;;;;7.28;5.35;;;15.00;89.40;;;;;;4967936;28;86710;-84
2021/06/01 06:58:54;;;;;;;5.82;5.10;;;15.10;90.10;;;;;;4959802;28;87789;-83
2021/06/01 07:01:21;;;;;;;6.97;5.72;;;15.20;88.30;;;;;;4967193;28;86969;-84
2021/06/01 07:03:47;;;;;;;7.05;5.72;;;15.30;88.00;;;;;;4949593;28;88150;-88
2021/06/01 07:06:13;;;;;;;6.07;5.47;;;15.40;87.40;;;;;;4966918;28;87195;-83
2021/06/01 07:08:39;;;;;;;9.07;8.27;;;15.50;92.40;;;;;;4964606;28;87040;-84
2021/06/01 07:11:04;;;;;;;6.70;6.10;;;15.50;88.60;;;;;;4949967;28;87583;-82
2021/06/01 07:13:44;;;;;;;7.22;6.63;;;15.70;89.10;;;;;;4960696;28;87333;-84
2021/06/01 07:16:10;;;;;;;8.70;6.75;;;15.80;89.10;;;;;;4951687;28;88602;-85
2021/06/01 07:18:39;;;;;;;7.90;6.53;;;15.90;89.50;;;;;;4950253;28;86924;-85
2021/06/01 07:21:06;;;;;;;7.18;6.15;;;15.90;87.40;;;;;;4962940;28;86445;-85
2021/06/01 07:23:33;;;;;;;7.60;6.60;;;15.90;88.10;;;;;;4967304;28;87945;-83
2021/06/01 07:25:59;;;;;;;6.63;6.03;;;16.00;87.40;;;;;;4962103;28;87128;-83
2021/06/01 07:28:25;;;;;;;6.68;5.50;;;16.10;88.80;;;;;;4964529;28;86851;-84
2021/06/01 07:30:51;;;;;;;10.25;6.80;;;16.30;87.20;;;;;;4968320;28;86834;-84
2021/06/01 07:33:17;;;;;;;8.50;6.20;;;16.30;85.60;;;;;;4968474;28;87203;-85
2021/06/01 07:35:43;;;;;;;7.80;6.53;;;16.40;84.70;;;;;;4968712;28;87042;-84
2021/06/01 07:38:11;;;;;;;6.85;6.15;;;16.50;84.70;;;;;;4969202;28;86942;-86
2021/06/01 07:40:37;;;;;;;7.38;6.35;;;16.60;84.20;;;;;;4951951;28;86264;-86
2021/06/01 07:43:03;;;;;;;9.55;6.45;;;16.80;84.60;;;;;;4968848;28;86960;-85
2021/06/01 07:45:29;;;;;;;6.55;5.90;;;16.90;84.00;;;;;;4969655;28;87693;-86
2021/06/01 07:47:55;;;;;;;7.50;6.55;;;17.00;83.10;;;;;;4971872;28;87660;-86
2021/06/01 07:50:21;;;;;;;6.90;6.30;;;17.10;82.40;;;;;;4977032;28;87091;-84
2021/06/01 07:52:47;;;;;;;17.83;12.95;;;17.30;80.40;;;;;;4974219;28;87703;-85
2021/06/01 07:55:13;;;;;;;9.27;7.88;;;17.30;80.70;;;;;;4972889;28;87407;-86
2021/06/01 07:57:38;;;;;;;8.55;7.40;;;17.40;80.10;;;;;;4977558;28;87006;-85
2021/06/01 08:00:06;;;;;;;10.20;7.80;;;17.50;80.40;;;;;;4975731;28;86872;-85
2021/06/01 08:02:32;;;;;;;8.20;7.22;;;17.70;79.40;;;;;;4974977;28;87229;-84
2021/06/01 08:04:58;;;;;;;7.80;7.00;;;17.80;76.70;;;;;;4978752;28;86224;-86
2021/06/01 08:07:23;;;;;;;8.30;7.45;;;17.70;76.30;;;;;;4982002;28;86691;-83
2021/06/01 08:09:49;;;;;;;10.15;7.53;;;17.80;77.00;;;;;;4971680;28;87666;-85
2021/06/01 08:12:15;;;;;;;14.48;11.07;;;17.90;74.50;;;;;;4967363;28;87854;-82
2021/06/01 08:14:41;;;;;;;8.00;7.15;;;18.00;77.40;;;;;;4970068;28;87113;-87
2021/06/01 08:17:07;;;;;;;8.23;6.75;;;18.10;77.20;;;;;;4979121;28;86453;-84
2021/06/01 08:19:36;;;;;;;8.13;7.32;;;18.20;76.50;;;;;;4975044;28;86575;-84
2021/06/01 08:24:34;;;;;;;8.13;7.32;;;18.40;73.10;;;;;;4965973;28;86972;-84
2021/06/01 08:26:59;;;;;;;8.20;7.38;;;18.50;73.60;;;;;;4975644;28;86969;-83
2021/06/01 08:29:25;;;;;;;8.20;7.38;;;18.60;74.40;;;;;;4980940;28;85488;-84
2021/06/01 08:31:51;;;;;;;8.40;7.63;;;18.80;73.30;;;;;;4964513;28;89367;-84
2021/06/01 08:34:17;;;;;;;7.07;6.47;;;19.00;72.70;;;;;;4978609;28;86715;-84
2021/06/01 08:36:43;;;;;;;9.10;8.40;;;;;;;;;;4971329;28;87921;-87
2021/06/01 08:39:09;;;;;;;7.78;7.07;;;19.30;68.40;;;;;;4972779;28;86956;-80
2021/06/01 08:41:36;;;;;;;6.90;6.30;;;19.40;67.60;;;;;;4980553;28;86913;-84
2021/06/01 08:44:04;;;;;;;7.63;6.80;;;19.70;65.20;;;;;;4980972;28;86922;-83
2021/06/01 08:46:31;;;;;;;8.20;7.50;;;19.90;66.30;;;;;;4976977;28;86395;-85
2021/06/01 08:48:57;;;;;;;7.32;6.63;;;20.20;65.60;;;;;;4975113;28;86243;-85
2021/06/01 08:51:25;;;;;;;7.40;6.63;;;20.60;65.20;;;;;;4979611;28;87370;-83
2021/06/01 08:53:54;;;;;;;7.82;7.22;;;21.00;64.50;;;;;;4978759;28;86163;-86
2021/06/01 08:56:20;;;;;;;8.07;7.38;;;21.30;63.40;;;;;;4978162;28;87094;-85
2021/06/01 08:58:50;;;;;;;7.63;7.05;;;21.70;62.00;;;;;;4973585;28;86957;-85
2021/06/01 09:01:18;;;;;;;9.18;8.23;;;22.30;61.20;;;;;;4956018;28;89972;-86
2021/06/01 09:03:55;;;;;;;8.52;7.75;;;22.90;58.20;;;;;;4974294;28;87319;-83
2021/06/01 09:22:34;;;;;;;5.63;5.05;;;30.80;42.00;;;;;;4937083;28;86979;-86
2021/06/01 09:25:10;;;;;;;5.78;5.05;;;32.40;39.20;;;;;;4977784;28;87247;-86
2021/06/01 09:27:46;;;;;;;5.22;4.82;;;33.40;36.40;;;;;;4975314;28;88198;-86
2021/06/01 09:31:02;;;;;;;6.85;6.35;;;34.00;34.20;;;;;;4975318;28;87100;-85
2021/06/01 09:33:30;;;;;;;5.13;4.70;;;35.00;33.10;;;;;;4956358;28;87302;-85
2021/06/01 09:36:01;;;;;;;6.50;5.78;;;35.80;32.90;;;;;;4957697;28;87413;-86
2021/06/01 09:38:30;;;;;;;6.25;5.70;;;36.50;32.20;;;;;;4972297;28;87287;-86
2021/06/01 09:41:02;;;;;;;5.20;4.80;;;37.30;32.60;;;;;;4977121;28;87005;-86
2021/06/01 09:43:28;;;;;;;5.18;4.82;;;38.00;29.90;;;;;;4974676;28;87251;-86
2021/06/01 09:45:54;;;;;;;5.78;5.28;;;38.60;30.10;;;;;;4975324;28;87595;-85
2021/06/01 09:48:21;;;;;;;5.30;4.90;;;39.00;30.50;;;;;;4965779;28;86823;-86
2021/06/01 09:51:00;;;;;;;5.95;5.28;;;39.20;29.20;;;;;;4977839;28;87121;-82
2021/06/01 09:55:53;;;;;;;5.18;4.53;;;40.60;29.00;;;;;;4981811;28;87108;-86
2021/06/01 09:58:28;;;;;;;5.35;4.85;;;40.50;27.00;;;;;;4977381;28;86231;-86
2021/06/01 10:00:56;;;;;;;5.57;5.18;;;40.90;27.50;;;;;;4980615;28;86993;-87
2021/06/01 10:03:24;;;;;;;5.50;5.00;;;41.60;28.30;;;;;;4979598;28;87241;-86
2021/06/01 10:05:55;;;;;;;5.88;5.32;;;41.90;28.10;;;;;;4985074;28;86872;-85
2021/06/01 10:08:27;;;;;;;5.10;4.68;;;42.40;27.60;;;;;;4974595;28;86955;-86
2021/06/01 10:11:10;;;;;;;5.70;5.20;;;43.10;27.40;;;;;;4975589;28;85943;-84
2021/06/01 10:13:38;;;;;;;5.72;5.18;;;43.70;26.10;;;;;;4966102;28;87028;-84
2021/06/01 10:16:12;;;;;;;5.90;5.40;;;43.10;27.40;;;;;;4960450;28;87001;-85
2021/06/01 10:18:41;;;;;;;6.10;5.60;;;43.60;27.00;;;;;;4972899;28;87498;-84
2021/06/01 10:21:09;;;;;;;5.28;4.97;;;43.80;26.90;;;;;;4970418;28;87030;-85
2021/06/01 10:23:39;;;;;;;5.45;4.88;;;43.30;26.60;;;;;;4969238;28;87892;-85
2021/06/01 10:26:08;;;;;;;5.63;5.10;;;43.30;26.40;;;;;;4973786;28;87453;-84
2021/06/01 10:28:37;;;;;;;5.20;4.70;;;43.90;26.00;;;;;;4974951;28;87576;-85
2021/06/01 10:31:06;;;;;;;6.72;4.90;;;44.10;26.50;;;;;;4958950;28;87115;-85
2021/06/01 10:33:46;;;;;;;5.55;5.13;;;44.20;25.30;;;;;;4979238;28;88764;-84
2021/06/01 10:44:53;;;;;;;4.78;4.45;;;43.70;25.70;;;;;;4970711;28;87875;-85
2021/06/01 10:50:28;;;;;;;4.80;4.50;;;44.90;25.00;;;;;;4973775;28;86961;-88
2021/06/01 10:53:07;;;;;;;4.95;4.60;;;45.50;25.50;;;;;;4974034;28;87786;-87
2021/06/01 10:59:05;;;;;;;5.05;4.57;;;46.10;25.00;;;;;;4972195;28;87301;-89
2021/06/01 11:04:15;;;;;;;5.60;4.80;;;46.40;24.70;;;;;;4971378;28;85544;-88
2021/06/01 11:06:47;;;;;;;5.18;4.88;;;45.90;24.30;;;;;;4967256;28;89226;-88
2021/06/01 11:09:47;;;;;;;5.43;5.13;;;46.40;24.20;;;;;;4970227;28;87257;-85
2021/06/01 11:12:22;;;;;;;5.05;4.65;;;46.10;24.50;;;;;;4926645;28;87933;-87
2021/06/01 11:14:54;;;;;;;5.15;4.75;;;46.30;24.40;;;;;;4969620;28;87101;-85
2021/06/01 11:17:41;;;;;;;5.38;4.72;;;46.00;24.30;;;;;;4972361;28;88768;-88
2021/06/01 11:20:10;;;;;;;4.60;4.20;;;46.20;24.00;;;;;;4965915;28;86995;-87
2021/06/01 11:33:52;;;;;;;6.90;6.50;;;46.70;24.60;;;;;;4969816;28;86533;-89
2021/06/01 11:36:20;;;;;;;5.68;5.28;;;47.20;24.20;;;;;;4973539;28;86770;-88
2021/06/01 11:38:51;;;;;;;5.22;4.82;;;47.10;24.30;;;;;;4957893;28;88607;-87
2021/06/01 11:44:26;;;;;;;7.57;7.07;;;47.00;24.10;;;;;;4968902;28;86982;-89
2021/06/01 12:19:15;;;;;;;5.07;4.68;;;46.10;24.70;;;;;;4977337;28;86736;-87
2021/06/01 12:21:49;;;;;;;5.40;5.10;;;46.00;25.20;;;;;;4963939;28;86970;-87
2021/06/01 12:24:22;;;;;;;5.05;4.75;;;45.60;25.10;;;;;;4967654;28;86538;-87
2021/06/01 12:43:58;;;;;;;6.35;6.05;;;45.00;23.30;;;;;;4957380;28;87107;-86
2021/06/01 13:20:39;;;;;;;3.70;3.40;;;41.00;23.70;;;;;;4973677;28;86496;-85
2021/06/01 13:23:41;;;;;;;3.80;3.50;;;40.60;24.80;;;;;;4978959;28;87305;-85
2021/06/01 13:32:33;;;;;;;4.00;3.47;;;39.10;24.10;;;;;;4922746;28;87147;-85
2021/06/01 13:36:28;;;;;;;5.72;5.22;;;38.80;24.80;;;;;;4977141;28;88382;-85
2021/06/01 13:38:19;;;;;;;5.10;4.90;;;38.50;24.40;;;;;;4978714;28;88550;-84
2021/06/01 13:46:39;;;;;;;3.40;3.10;;;38.20;25.70;;;;;;4978165;28;86894;-84
2021/06/01 14:30:54;;;;;;;5.30;4.90;;;34.80;27.50;;;;;;4981958;28;87302;-85
2021/06/01 14:56:59;;;;;;;5.47;5.07;;;32.80;28.10;;;;;;4970572;28;86969;-85
2021/06/01 15:50:07;;;;;;;4.40;4.20;;;29.50;31.00;;;;;;4972998;28;86642;-87
2021/06/01 16:22:39;;;;;;;4.45;4.13;;;27.90;31.30;;;;;;4974230;28;86978;-84
2021/06/01 16:44:11;;;;;;;4.05;3.80;;;27.00;31.20;;;;;;4970431;28;86897;-86
2021/06/01 17:03:25;;;;;;;3.92;3.63;;;26.20;31.00;;;;;;4944061;28;87180;-86
2021/06/01 17:05:58;;;;;;;2.30;2.20;;;26.00;31.10;;;;;;4974705;28;87796;-86
2021/06/01 17:11:18;;;;;;;3.90;3.70;;;25.80;32.60;;;;;;4966769;28;86985;-87
2021/06/01 17:13:52;;;;;;;3.92;3.60;;;25.80;32.40;;;;;;4971234;28;89004;-85
2021/06/01 17:16:58;;;;;;;3.85;3.65;;;25.60;32.20;;;;;;4967986;28;88349;-86
2021/06/01 17:30:59;;;;;;;9.15;4.75;;;25.20;35.00;;;;;;4973715;28;87061;-87
2021/06/01 17:35:42;;;;;;;3.90;3.60;;;;;;;;;;4975833;28;87156;-82
2021/06/01 17:38:09;;;;;;;4.43;4.13;;;24.80;36.20;;;;;;4975715;28;87106;-84
2021/06/01 17:40:37;;;;;;;4.05;3.72;;;24.70;36.70;;;;;;4975625;28;87675;-85
2021/06/01 17:43:06;;;;;;;4.45;4.03;;;24.60;36.50;;;;;;4976901;28;86195;-84
2021/06/01 17:45:36;;;;;;;4.13;3.83;;;24.50;36.90;;;;;;4975689;28;87616;-84
2021/06/01 17:48:12;;;;;;;4.25;3.95;;;24.40;37.50;;;;;;4976204;28;86777;-84
2021/06/01 17:50:38;;;;;;;4.93;4.50;;;24.30;37.30;;;;;;4965457;28;87015;-86
2021/06/01 17:53:05;;;;;;;5.30;5.00;;;24.20;37.30;;;;;;4973089;28;87010;-83
2021/06/01 17:55:33;;;;;;;5.22;4.80;;;24.10;38.10;;;;;;4966181;28;87654;-85
2021/06/01 17:58:00;;;;;;;5.05;4.50;;;24.10;37.00;;;;;;4973554;28;87651;-83
2021/06/01 18:00:28;;;;;;;4.68;4.28;;;23.90;37.00;;;;;;4972611;28;86588;-84
2021/06/01 18:02:54;;;;;;;5.22;4.30;;;23.80;37.50;;;;;;4959582;28;87198;-85
2021/06/01 18:05:24;;;;;;;6.88;4.10;;;23.90;37.60;;;;;;4974356;28;88273;-83
2021/06/01 18:41:34;;;;;;;4.82;4.43;;;22.50;40.10;;;;;;4969674;28;86853;-84
2021/06/01 19:24:47;;;;;;;5.72;5.22;;;19.30;50.80;;;;;;4974527;28;87074;-85
2021/06/01 19:42:12;;;;;;;5.47;5.07;;;19.20;53.30;;;;;;4972707;28;87884;-86
2021/06/01 19:51:58;;;;;;;4.88;4.40;;;18.20;57.50;;;;;;4970586;28;86450;-83
2021/06/01 19:54:27;;;;;;;4.47;4.07;;;17.50;58.10;;;;;;4968741;28;87831;-85
2021/06/01 19:56:53;;;;;;;5.25;4.05;;;18.30;58.10;;;;;;4967697;28;87016;-82
2021/06/01 19:59:20;;;;;;;5.38;4.63;;;17.70;58.40;;;;;;4963060;28;86378;-84
2021/06/01 20:01:46;;;;;;;7.07;4.80;;;17.60;58.40;;;;;;4970998;28;87566;-85
2021/06/01 20:04:12;;;;;;;5.85;4.43;;;17.40;58.30;;;;;;4966251;28;87133;-85
2021/06/01 20:06:39;;;;;;;5.43;5.03;;;17.60;58.80;;;;;;4963734;28;87817;-82
2021/06/01 20:09:06;;;;;;;5.32;4.75;;;17.70;58.90;;;;;;4967932;28;86915;-82
2021/06/01 20:11:34;;;;;;;5.55;4.25;;;17.10;57.90;;;;;;4969246;28;85954;-82
2021/06/01 20:14:00;;;;;;;5.28;4.30;;;17.20;57.80;;;;;;4960574;28;88216;-82
2021/06/01 20:16:28;;;;;;;5.85;4.55;;;17.40;57.70;;;;;;4968308;28;87003;-83
2021/06/01 20:18:57;;;;;;;5.60;4.65;;;17.10;57.70;;;;;;4957338;28;88391;-82
2021/06/01 20:21:24;;;;;;;4.47;4.13;;;17.10;58.00;;;;;;4970169;28;86901;-84
2021/06/01 20:23:52;;;;;;;5.60;5.13;;;16.90;58.40;;;;;;4950072;28;90952;-85
2021/06/01 20:26:20;;;;;;;5.35;4.53;;;17.20;58.00;;;;;;4969632;28;86992;-85
2021/06/01 20:28:51;;;;;;;4.78;4.38;;;17.00;57.60;;;;;;4971729;28;86234;-85
2021/06/01 20:31:29;;;;;;;5.43;4.35;;;17.00;57.50;;;;;;4963191;28;86572;-83
2021/06/01 20:33:56;;;;;;;4.80;4.40;;;17.30;57.60;;;;;;4958097;28;87298;-85
2021/06/01 20:36:22;;;;;;;5.20;4.70;;;17.10;57.10;;;;;;4946100;28;89944;-85
2021/06/01 20:38:52;;;;;;;5.00;4.60;;;16.90;56.70;;;;;;4966530;28;86972;-85
2021/06/01 20:41:18;;;;;;;5.47;4.30;;;17.00;56.70;;;;;;4968224;28;87196;-82
2021/06/01 20:43:45;;;;;;;7.15;4.60;;;17.00;56.70;;;;;;4969279;28;87776;-85
2021/06/01 20:46:11;;;;;;;4.93;4.50;;;17.20;56.70;;;;;;4965220;28;87595;-86
2021/06/01 20:48:37;;;;;;;5.85;4.80;;;17.10;56.20;;;;;;4967994;28;86851;-84
2021/06/01 20:51:03;;;;;;;5.40;4.90;;;17.10;56.50;;;;;;4957765;28;86537;-84
2021/06/01 20:53:29;;;;;;;5.28;4.78;;;17.30;56.90;;;;;;4968081;28;87178;-84
2021/06/01 20:55:56;;;;;;;5.22;4.72;;;17.80;57.60;;;;;;4964033;28;87377;-83
2021/06/01 20:58:43;;;;;;;4.60;4.20;;;17.10;57.50;;;;;;4968591;28;86223;-84
2021/06/01 21:01:14;;;;;;;4.95;4.50;;;16.50;57.30;;;;;;4956928;28;86310;-84
2021/06/01 21:03:46;;;;;;;5.00;4.60;;;16.70;57.30;;;;;;4966835;28;87389;-83
2021/06/01 21:06:12;;;;;;;5.45;4.95;;;17.20;57.50;;;;;;4967602;28;86956;-84
2021/06/01 21:08:40;;;;;;;5.05;4.55;;;16.90;57.30;;;;;;4969909;28;87755;-84
2021/06/01 21:11:10;;;;;;;6.45;4.95;;;16.70;57.70;;;;;;4970684;28;86908;-85
2021/06/01 21:13:36;;;;;;;4.60;4.30;;;17.10;58.10;;;;;;4973153;28;87084;-84
2021/06/01 21:16:04;;;;;;;5.43;4.93;;;16.80;58.30;;;;;;4973205;28;86886;-84
2021/06/01 21:18:30;;;;;;;5.95;4.97;;;16.80;58.00;;;;;;4972497;28;86894;-85
2021/06/01 21:20:56;;;;;;;4.95;4.55;;;17.20;59.00;;;;;;4972940;28;86794;-84
2021/06/01 21:23:21;;;;;;;4.65;4.05;;;16.70;59.00;;;;;;4975409;28;88261;-84
2021/06/01 21:25:47;;;;;;;4.50;4.20;;;16.40;59.10;;;;;;4973261;28;87283;-84
2021/06/01 21:28:13;;;;;;;4.72;4.32;;;16.70;59.40;;;;;;4972158;28;86995;-83
2021/06/01 21:30:40;;;;;;;5.93;5.32;;;16.40;59.70;;;;;;4970455;28;87031;-84
2021/06/01 21:33:17;;;;;;;4.80;4.40;;;16.50;60.20;;;;;;4968009;28;88015;-82
2021/06/01 21:35:47;;;;;;;5.47;5.00;;;15.80;60.90;;;;;;4969522;28;88535;-85
2021/06/01 21:38:16;;;;;;;4.73;4.33;;;16.50;60.90;;;;;;4968581;28;86705;-83
2021/06/01 21:40:44;;;;;;;6.82;4.60;;;16.30;61.00;;;;;;4970019;28;86614;-83
2021/06/01 21:43:12;;;;;;;5.95;4.80;;;16.50;60.80;;;;;;4973083;28;87019;-83
2021/06/01 21:45:39;;;;;;;4.93;4.53;;;16.50;61.70;;;;;;4973218;28;87467;-84
2021/06/01 21:48:16;;;;;;;6.38;4.65;;;16.00;61.20;;;;;;4971935;28;86969;-82
2021/06/01 21:50:47;;;;;;;5.07;4.53;;;16.20;64.30;;;;;;4954256;28;86199;-85
2021/06/01 21:53:17;;;;;;;6.35;4.72;;;16.20;65.60;;;;;;4971788;28;88079;-84
2021/06/01 21:55:43;;;;;;;5.30;4.90;;;15.90;64.30;;;;;;4974362;28;86925;-85
2021/06/01 21:58:10;;;;;;;4.45;4.15;;;15.60;63.30;;;;;;4974729;28;87819;-85
